Wetterdaten: Donnerstag, 18.11.2010
Datum Zeit Temp. A. Feuchte A. Luftdruck Regen Wind Richtung Richtung Sonnenschein UV Solar Windben
18.11.2010 00:00 4,6 C 87 % 1008,9 hPa 0,0 mm 0,3 km/h (0 Bft) O 94 0 min 0 UV-I 0 W/m 3,2 km/h (1 Bft)
18.11.2010 00:10 4,6 C 87 % 1008,7 hPa 0,0 mm 1,6 km/h (1 Bft) O 94 0 min 0 UV-I 0 W/m 4,8 km/h (1 Bft)
18.11.2010 00:20 4,6 C 87 % 1008,8 hPa 0,0 mm 1,7 km/h (1 Bft) O 87 0 min 0 UV-I 0 W/m 6,4 km/h (2 Bft)
18.11.2010 00:30 4,6 C 87 % 1008,6 hPa 0,0 mm 0,0 km/h (0 Bft) O 90 0 min 0 UV-I 0 W/m 4,8 km/h (1 Bft)
18.11.2010 00:40 4,6 C 88 % 1008,5 hPa 0,0 mm 1,6 km/h (1 Bft) O 90 0 min 0 UV-I 0 W/m 6,4 km/h (2 Bft)
18.11.2010 00:50 4,7 C 88 % 1008,6 hPa 0,0 mm 3,2 km/h (1 Bft) O 90 0 min 0 UV-I 0 W/m 8,0 km/h (2 Bft)
18.11.2010 01:00 4,7 C 88 % 1008,5 hPa 0,0 mm 1,6 km/h (1 Bft) O-SO 112 0 min 0 UV-I 0 W/m 6,4 km/h (2 Bft)
18.11.2010 01:10 4,7 C 88 % 1008,5 hPa 0,0 mm 1,6 km/h (1 Bft) O 90 0 min 0 UV-I 0 W/m 8,0 km/h (2 Bft)
18.11.2010 01:20 4,7 C 88 % 1008,3 hPa 0,0 mm 1,6 km/h (1 Bft) O 90 0 min 0 UV-I 0 W/m 8,0 km/h (2 Bft)
18.11.2010 01:30 4,7 C 88 % 1008,3 hPa 0,0 mm 1,6 km/h (1 Bft) O 90 0 min 0 UV-I 0 W/m 6,4 km/h (2 Bft)
18.11.2010 01:40 4,8 C 88 % 1008,1 hPa 0,0 mm 1,6 km/h (1 Bft) O 90 0 min 0 UV-I 0 W/m 6,4 km/h (2 Bft)
18.11.2010 01:50 4,8 C 88 % 1008,1 hPa 0,0 mm 1,6 km/h (1 Bft) O 90 0 min 0 UV-I 0 W/m 4,8 km/h (1 Bft)
18.11.2010 02:00 4,8 C 88 % 1008,1 hPa 0,0 mm 1,6 km/h (1 Bft) O 90 0 min 0 UV-I 0 W/m 6,4 km/h (2 Bft)
18.11.2010 02:10 4,8 C 88 % 1008,1 hPa 0,0 mm 1,6 km/h (1 Bft) O-NO 67 0 min 0 UV-I 0 W/m 6,4 km/h (2 Bft)
18.11.2010 02:20 4,8 C 88 % 1008,1 hPa 0,0 mm 1,6 km/h (1 Bft) O-NO 67 0 min 0 UV-I 0 W/m 6,4 km/h (2 Bft)
18.11.2010 02:30 4,8 C 88 % 1008,2 hPa 0,0 mm 1,6 km/h (1 Bft) O-SO 112 0 min 0 UV-I 0 W/m 9,7 km/h (2 Bft)
18.11.2010 02:40 4,8 C 88 % 1008,1 hPa 0,0 mm 3,2 km/h (1 Bft) O 90 0 min 0 UV-I 0 W/m 6,4 km/h (2 Bft)
18.11.2010 02:50 4,8 C 88 % 1008,1 hPa 0,0 mm 1,6 km/h (1 Bft) O-SO 112 0 min 0 UV-I 0 W/m 8,0 km/h (2 Bft)
18.11.2010 03:00 4,8 C 88 % 1008,0 hPa 0,0 mm 1,6 km/h (1 Bft) O 90 0 min 0 UV-I 0 W/m 6,4 km/h (2 Bft)
18.11.2010 03:10 4,8 C 88 % 1008,2 hPa 0,0 mm 1,6 km/h (1 Bft) O 90 0 min 0 UV-I 0 W/m 4,8 km/h (1 Bft)
18.11.2010 03:20 4,8 C 88 % 1008,2 hPa 0,0 mm 0,0 km/h (0 Bft) O 90 0 min 0 UV-I 0 W/m 4,8 km/h (1 Bft)
18.11.2010 03:30 4,8 C 88 % 1008,3 hPa 0,0 mm 1,6 km/h (1 Bft) O 90 0 min 0 UV-I 0 W/m 4,8 km/h (1 Bft)
18.11.2010 03:40 4,8 C 88 % 1008,2 hPa 0,0 mm 0,0 km/h (0 Bft) O 90 0 min 0 UV-I 0 W/m 4,8 km/h (1 Bft)
18.11.2010 03:50 4,9 C 88 % 1008,1 hPa 0,0 mm 1,6 km/h (1 Bft) O 90 0 min 0 UV-I 0 W/m 6,4 km/h (2 Bft)
18.11.2010 04:00 4,9 C 89 % 1008,1 hPa 0,0 mm 1,6 km/h (1 Bft) O 90 0 min 0 UV-I 0 W/m 4,8 km/h (1 Bft)
18.11.2010 04:10 4,9 C 89 % 1008,3 hPa 0,0 mm 1,6 km/h (1 Bft) O 90 0 min 0 UV-I 0 W/m 6,4 km/h (2 Bft)
18.11.2010 04:20 4,9 C 89 % 1008,0 hPa 0,0 mm 0,0 km/h (0 Bft) O 90 0 min 0 UV-I 0 W/m 4,8 km/h (1 Bft)
18.11.2010 04:30 4,9 C 89 % 1008,0 hPa 0,0 mm 1,6 km/h (1 Bft) O 90 0 min 0 UV-I 0 W/m 8,0 km/h (2 Bft)
18.11.2010 04:40 4,9 C 89 % 1008,0 hPa 0,0 mm 1,6 km/h (1 Bft) O 90 0 min 0 UV-I 0 W/m 6,4 km/h (2 Bft)
18.11.2010 04:50 4,9 C 89 % 1008,0 hPa 0,0 mm 0,0 km/h (0 Bft) O 90 0 min 0 UV-I 0 W/m 3,2 km/h (1 Bft)
18.11.2010 05:00 4,9 C 89 % 1007,9 hPa 0,0 mm 0,0 km/h (0 Bft) O 90 0 min 0 UV-I 0 W/m 4,8 km/h (1 Bft)
18.11.2010 05:10 5,0 C 89 % 1007,9 hPa 0,0 mm 0,0 km/h (0 Bft) O 90 0 min 0 UV-I 0 W/m 3,2 km/h (1 Bft)
18.11.2010 05:20 5,0 C 89 % 1007,9 hPa 0,0 mm 0,0 km/h (0 Bft) O 90 0 min 0 UV-I 0 W/m 4,8 km/h (1 Bft)
18.11.2010 05:30 5,0 C 89 % 1007,9 hPa 0,0 mm 0,0 km/h (0 Bft) O 90 0 min 0 UV-I 0 W/m 3,2 km/h (1 Bft)
18.11.2010 05:40 5,0 C 89 % 1007,8 hPa 0,0 mm 0,0 km/h (0 Bft) O 90 0 min 0 UV-I 0 W/m 3,2 km/h (1 Bft)
18.11.2010 05:50 5,0 C 89 % 1007,8 hPa 0,0 mm 0,0 km/h (0 Bft) O 90 0 min 0 UV-I 0 W/m 3,2 km/h (1 Bft)
18.11.2010 06:00 5,0 C 89 % 1007,8 hPa 0,0 mm 0,0 km/h (0 Bft) O 90 0 min 0 UV-I 0 W/m 4,8 km/h (1 Bft)
18.11.2010 06:10 5,0 C 89 % 1007,7 hPa 0,0 mm 1,6 km/h (1 Bft) O 90 0 min 0 UV-I 0 W/m 4,8 km/h (1 Bft)
18.11.2010 06:20 4,9 C 89 % 1007,9 hPa 0,0 mm 1,6 km/h (1 Bft) O 90 0 min 0 UV-I 0 W/m 4,8 km/h (1 Bft)
18.11.2010 06:30 4,9 C 89 % 1007,9 hPa 0,0 mm 1,6 km/h (1 Bft) O 90 0 min 0 UV-I 0 W/m 4,8 km/h (1 Bft)
18.11.2010 06:40 4,9 C 89 % 1008,0 hPa 0,0 mm 1,6 km/h (1 Bft) O 90 0 min 0 UV-I 0 W/m 6,4 km/h (2 Bft)
18.11.2010 06:50 4,9 C 89 % 1007,9 hPa 0,0 mm 1,6 km/h (1 Bft) O 90 0 min 0 UV-I 0 W/m 6,4 km/h (2 Bft)
18.11.2010 07:00 5,0 C 89 % 1008,0 hPa 0,0 mm 1,6 km/h (1 Bft) O 90 0 min 0 UV-I 0 W/m 4,8 km/h (1 Bft)
18.11.2010 07:10 5,0 C 89 % 1008,0 hPa 0,0 mm 1,6 km/h (1 Bft) O 90 0 min 0 UV-I 0 W/m 6,4 km/h (2 Bft)
18.11.2010 07:20 5,0 C 89 % 1008,0 hPa 0,0 mm 1,6 km/h (1 Bft) O 90 0 min 0 UV-I 0 W/m 4,8 km/h (1 Bft)
18.11.2010 07:30 5,0 C 89 % 1008,1 hPa 0,0 mm 1,6 km/h (1 Bft) O 90 0 min 0 UV-I 0 W/m 6,4 km/h (2 Bft)
18.11.2010 07:40 5,0 C 89 % 1008,1 hPa 0,0 mm 1,6 km/h (1 Bft) O 90 0 min 0 UV-I 0 W/m 6,4 km/h (2 Bft)
18.11.2010 07:50 5,0 C 89 % 1008,2 hPa 0,0 mm 0,0 km/h (0 Bft) O 90 0 min 0 UV-I 0 W/m 6,4 km/h (2 Bft)
18.11.2010 08:00 5,0 C 89 % 1008,2 hPa 0,0 mm 0,2 km/h (0 Bft) O 101 0 min 0 UV-I 0 W/m 3,2 km/h (1 Bft)
18.11.2010 08:10 5,0 C 89 % 1008,3 hPa 0,0 mm 0,0 km/h (0 Bft) O 90 0 min 0 UV-I 5 W/m 4,8 km/h (1 Bft)
18.11.2010 08:20 5,0 C 89 % 1008,3 hPa 0,0 mm 0,0 km/h (0 Bft) O 90 0 min 0 UV-I 9 W/m 3,2 km/h (1 Bft)
18.11.2010 08:30 5,0 C 89 % 1008,4 hPa 0,0 mm 1,6 km/h (1 Bft) O 90 0 min 0 UV-I 9 W/m 4,8 km/h (1 Bft)
18.11.2010 08:40 5,1 C 89 % 1008,4 hPa 0,0 mm 1,6 km/h (1 Bft) O 90 0 min 0 UV-I 9 W/m 6,4 km/h (2 Bft)
18.11.2010 08:50 5,1 C 89 % 1008,4 hPa 0,0 mm 1,6 km/h (1 Bft) O-SO 112 0 min 0 UV-I 12 W/m 6,4 km/h (2 Bft)
18.11.2010 09:00 5,1 C 89 % 1008,5 hPa 0,0 mm 1,6 km/h (1 Bft) O-SO 112 0 min 0 UV-I 19 W/m 6,4 km/h (2 Bft)
18.11.2010 09:10 5,1 C 89 % 1008,5 hPa 0,0 mm 1,6 km/h (1 Bft) O-SO 112 0 min 0 UV-I 23 W/m 6,4 km/h (2 Bft)
18.11.2010 09:20 5,2 C 89 % 1008,6 hPa 0,0 mm 1,6 km/h (1 Bft) O-SO 112 0 min 0 UV-I 26 W/m 6,4 km/h (2 Bft)
18.11.2010 09:30 5,2 C 89 % 1008,5 hPa 0,0 mm 1,6 km/h (1 Bft) O-SO 112 0 min 0 UV-I 39 W/m 6,4 km/h (2 Bft)
18.11.2010 09:40 5,3 C 89 % 1008,4 hPa 0,0 mm 1,6 km/h (1 Bft) O-SO 112 0 min 0 UV-I 40 W/m 4,8 km/h (1 Bft)
18.11.2010 09:50 5,3 C 89 % 1008,4 hPa 0,0 mm 1,6 km/h (1 Bft) O-SO 112 0 min 0 UV-I 33 W/m 8,0 km/h (2 Bft)
18.11.2010 10:00 5,4 C 89 % 1008,4 hPa 0,0 mm 1,6 km/h (1 Bft) O-SO 112 0 min 0 UV-I 44 W/m 6,4 km/h (2 Bft)
18.11.2010 10:10 5,5 C 89 % 1008,4 hPa 0,0 mm 1,6 km/h (1 Bft) O-SO 112 0 min 0 UV-I 51 W/m 4,8 km/h (1 Bft)
18.11.2010 10:20 5,6 C 89 % 1008,5 hPa 0,0 mm 1,6 km/h (1 Bft) O-SO 112 0 min 0 UV-I 76 W/m 4,8 km/h (1 Bft)
18.11.2010 10:30 5,7 C 89 % 1008,6 hPa 0,0 mm 0,0 km/h (0 Bft) O-SO 112 0 min 0 UV-I 83 W/m 4,8 km/h (1 Bft)
18.11.2010 10:40 5,8 C 89 % 1008,6 hPa 0,0 mm 1,6 km/h (1 Bft) O-SO 112 0 min 1 UV-I 139 W/m 6,4 km/h (2 Bft)
18.11.2010 10:50 5,9 C 89 % 1008,6 hPa 0,0 mm 3,2 km/h (1 Bft) O-SO 112 0 min 1 UV-I 162 W/m 8,0 km/h (2 Bft)
18.11.2010 11:00 6,1 C 89 % 1008,5 hPa 0,0 mm 0,0 km/h (0 Bft) S-SO 157 0 min 1 UV-I 155 W/m 6,4 km/h (2 Bft)
18.11.2010 11:10 6,3 C 89 % 1008,6 hPa 0,0 mm 0,0 km/h (0 Bft) S-SO 157 0 min 1 UV-I 135 W/m 4,8 km/h (1 Bft)
18.11.2010 11:20 6,5 C 88 % 1008,5 hPa 0,0 mm 1,6 km/h (1 Bft) S-SO 157 0 min 1 UV-I 111 W/m 6,4 km/h (2 Bft)
18.11.2010 11:30 6,7 C 88 % 1008,6 hPa 0,0 mm 1,6 km/h (1 Bft) O-SO 112 0 min 1 UV-I 116 W/m 6,4 km/h (2 Bft)
18.11.2010 11:40 6,8 C 87 % 1008,5 hPa 0,0 mm 1,6 km/h (1 Bft) O-SO 112 0 min 1 UV-I 139 W/m 6,4 km/h (2 Bft)
18.11.2010 11:50 6,9 C 86 % 1008,5 hPa 0,0 mm 0,0 km/h (0 Bft) O-SO 112 0 min 1 UV-I 139 W/m 4,8 km/h (1 Bft)
18.11.2010 12:00 7,1 C 86 % 1008,6 hPa 0,0 mm 1,6 km/h (1 Bft) O-SO 112 0 min 1 UV-I 109 W/m 6,4 km/h (2 Bft)
18.11.2010 12:10 7,2 C 85 % 1008,6 hPa 0,0 mm 1,6 km/h (1 Bft) O-SO 112 0 min 1 UV-I 105 W/m 8,0 km/h (2 Bft)
18.11.2010 12:20 7,3 C 84 % 1008,6 hPa 0,0 mm 1,6 km/h (1 Bft) O-SO 112 0 min 0 UV-I 77 W/m 6,4 km/h (2 Bft)
18.11.2010 12:30 7,3 C 84 % 1008,6 hPa 0,0 mm 0,0 km/h (0 Bft) O-SO 112 0 min 1 UV-I 90 W/m 3,2 km/h (1 Bft)
18.11.2010 12:40 7,4 C 84 % 1008,5 hPa 0,0 mm 0,0 km/h (0 Bft) O-SO 112 0 min 1 UV-I 97 W/m 3,2 km/h (1 Bft)
18.11.2010 12:50 7,5 C 83 % 1008,5 hPa 0,0 mm 0,0 km/h (0 Bft) O-SO 112 0 min 1 UV-I 90 W/m 3,2 km/h (1 Bft)
18.11.2010 13:00 7,6 C 83 % 1008,5 hPa 0,0 mm 0,0 km/h (0 Bft) O-SO 112 0 min 0 UV-I 49 W/m 4,8 km/h (1 Bft)
18.11.2010 13:10 7,6 C 82 % 1008,6 hPa 0,0 mm 0,0 km/h (0 Bft) O-SO 112 0 min 0 UV-I 35 W/m 1,6 km/h (1 Bft)
18.11.2010 13:20 7,6 C 82 % 1008,5 hPa 0,0 mm 0,0 km/h (0 Bft) O-SO 112 0 min 0 UV-I 30 W/m 1,6 km/h (1 Bft)
18.11.2010 13:30 7,6 C 82 % 1008,6 hPa 0,0 mm 0,0 km/h (0 Bft) O-SO 112 0 min 0 UV-I 26 W/m 1,6 km/h (1 Bft)
18.11.2010 13:40 7,5 C 82 % 1008,5 hPa 0,0 mm 0,0 km/h (0 Bft) O-SO 112 0 min 0 UV-I 25 W/m 1,6 km/h (1 Bft)
18.11.2010 13:50 7,4 C 81 % 1008,6 hPa 0,0 mm 0,0 km/h (0 Bft) O-SO 112 0 min 0 UV-I 21 W/m 1,6 km/h (1 Bft)
18.11.2010 14:00 7,3 C 81 % 1008,7 hPa 0,0 mm 0,0 km/h (0 Bft) N 0 0 min 0 UV-I 19 W/m 0,0 km/h (0 Bft)
18.11.2010 14:10 7,3 C 81 % 1008,7 hPa 0,0 mm 0,0 km/h (0 Bft) O-SO 112 0 min 0 UV-I 16 W/m 1,6 km/h (1 Bft)
18.11.2010 14:20 7,3 C 81 % 1008,6 hPa 0,0 mm 0,0 km/h (0 Bft) N 0 0 min 0 UV-I 25 W/m 0,0 km/h (0 Bft)
18.11.2010 14:30 7,3 C 81 % 1008,6 hPa 0,0 mm 0,0 km/h (0 Bft) N 0 0 min 0 UV-I 33 W/m 0,0 km/h (0 Bft)
18.11.2010 14:40 7,2 C 81 % 1008,7 hPa 0,0 mm 0,0 km/h (0 Bft) N 0 0 min 0 UV-I 42 W/m 0,0 km/h (0 Bft)
18.11.2010 14:50 7,2 C 81 % 1008,7 hPa 0,0 mm 0,0 km/h (0 Bft) N 0 0 min 0 UV-I 37 W/m 0,0 km/h (0 Bft)
18.11.2010 15:00 7,2 C 81 % 1008,8 hPa 0,0 mm 0,0 km/h (0 Bft) N 0 0 min 0 UV-I 23 W/m 0,0 km/h (0 Bft)
18.11.2010 15:10 7,2 C 81 % 1008,8 hPa 0,0 mm 0,0 km/h (0 Bft) N 0 0 min 0 UV-I 14 W/m 0,0 km/h (0 Bft)
18.11.2010 15:20 7,2 C 81 % 1008,9 hPa 0,0 mm 0,0 km/h (0 Bft) N 0 0 min 0 UV-I 12 W/m 0,0 km/h (0 Bft)
18.11.2010 15:30 7,1 C 81 % 1009,0 hPa 0,0 mm 0,0 km/h (0 Bft) N 0 0 min 0 UV-I 11 W/m 0,0 km/h (0 Bft)
18.11.2010 15:40 7,1 C 81 % 1009,0 hPa 0,0 mm 0,0 km/h (0 Bft) N 0 0 min 0 UV-I 7 W/m 0,0 km/h (0 Bft)
18.11.2010 15:50 7,1 C 81 % 1009,0 hPa 0,0 mm 0,0 km/h (0 Bft) N 0 0 min 0 UV-I 7 W/m 0,0 km/h (0 Bft)
18.11.2010 16:00 7,0 C 81 % 1009,1 hPa 0,0 mm 0,0 km/h (0 Bft) O-SO 110 0 min 0 UV-I 5 W/m 0,0 km/h (0 Bft)
18.11.2010 16:10 7,0 C 81 % 1009,1 hPa 0,0 mm 0,0 km/h (0 Bft) N 0 0 min 0 UV-I 5 W/m 0,0 km/h (0 Bft)
18.11.2010 16:20 6,9 C 81 % 1009,2 hPa 0,0 mm 0,0 km/h (0 Bft) N 0 0 min 0 UV-I 0 W/m 0,0 km/h (0 Bft)
18.11.2010 16:30 6,9 C 81 % 1009,4 hPa 0,0 mm 0,0 km/h (0 Bft) N 0 0 min 0 UV-I 0 W/m 0,0 km/h (0 Bft)
18.11.2010 16:40 6,8 C 81 % 1009,2 hPa 0,0 mm 0,0 km/h (0 Bft) N 0 0 min 0 UV-I 0 W/m 0,0 km/h (0 Bft)
18.11.2010 16:50 6,7 C 81 % 1009,3 hPa 0,0 mm 0,0 km/h (0 Bft) N 0 0 min 0 UV-I 0 W/m 0,0 km/h (0 Bft)
18.11.2010 17:00 6,7 C 81 % 1009,4 hPa 0,0 mm 0,0 km/h (0 Bft) N 0 0 min 0 UV-I 0 W/m 0,0 km/h (0 Bft)
18.11.2010 17:10 6,6 C 81 % 1009,4 hPa 0,0 mm 0,0 km/h (0 Bft) N 0 0 min 0 UV-I 0 W/m 0,0 km/h (0 Bft)
18.11.2010 17:20 6,6 C 81 % 1009,4 hPa 0,0 mm 0,0 km/h (0 Bft) N 0 0 min 0 UV-I 0 W/m 0,0 km/h (0 Bft)
18.11.2010 17:30 6,5 C 82 % 1009,5 hPa 0,0 mm 0,0 km/h (0 Bft) N 0 0 min 0 UV-I 0 W/m 0,0 km/h (0 Bft)
18.11.2010 17:40 6,4 C 82 % 1009,5 hPa 0,0 mm 0,0 km/h (0 Bft) N 0 0 min 0 UV-I 0 W/m 0,0 km/h (0 Bft)
18.11.2010 17:50 6,4 C 82 % 1009,7 hPa 0,0 mm 0,0 km/h (0 Bft) N 0 0 min 0 UV-I 0 W/m 0,0 km/h (0 Bft)
18.11.2010 18:00 6,3 C 82 % 1009,9 hPa 0,0 mm 0,0 km/h (0 Bft) N 0 0 min 0 UV-I 0 W/m 0,0 km/h (0 Bft)
18.11.2010 18:10 6,3 C 82 % 1010,1 hPa 0,0 mm 0,0 km/h (0 Bft) N 0 0 min 0 UV-I 0 W/m 0,0 km/h (0 Bft)
18.11.2010 18:20 6,3 C 83 % 1010,1 hPa 0,0 mm 0,0 km/h (0 Bft) N 0 0 min 0 UV-I 0 W/m 0,0 km/h (0 Bft)
18.11.2010 18:30 6,2 C 83 % 1010,1 hPa 0,0 mm 0,0 km/h (0 Bft) N 0 0 min 0 UV-I 0 W/m 0,0 km/h (0 Bft)
18.11.2010 18:40 6,2 C 84 % 1010,2 hPa 0,0 mm 0,0 km/h (0 Bft) N 0 0 min 0 UV-I 0 W/m 0,0 km/h (0 Bft)
18.11.2010 18:50 6,2 C 84 % 1010,3 hPa 0,0 mm 0,0 km/h (0 Bft) N 0 0 min 0 UV-I 0 W/m 0,0 km/h (0 Bft)
18.11.2010 19:00 6,2 C 85 % 1010,3 hPa 0,0 mm 0,0 km/h (0 Bft) O-SO 112 0 min 0 UV-I 0 W/m 1,6 km/h (1 Bft)
18.11.2010 19:10 6,2 C 85 % 1010,4 hPa 0,0 mm 0,0 km/h (0 Bft) O-SO 112 0 min 0 UV-I 0 W/m 1,6 km/h (1 Bft)
18.11.2010 19:20 6,2 C 86 % 1010,6 hPa 0,0 mm 0,0 km/h (0 Bft) O-SO 112 0 min 0 UV-I 0 W/m 3,2 km/h (1 Bft)
18.11.2010 19:30 6,1 C 86 % 1010,6 hPa 0,0 mm 0,0 km/h (0 Bft) O-SO 112 0 min 0 UV-I 0 W/m 1,6 km/h (1 Bft)
18.11.2010 19:40 6,1 C 86 % 1010,7 hPa 0,0 mm 0,0 km/h (0 Bft) N 0 0 min 0 UV-I 0 W/m 0,0 km/h (0 Bft)
18.11.2010 19:50 6,1 C 86 % 1010,7 hPa 0,0 mm 0,0 km/h (0 Bft) O-SO 112 0 min 0 UV-I 0 W/m 1,6 km/h (1 Bft)
18.11.2010 20:00 6,1 C 86 % 1010,8 hPa 0,0 mm 0,0 km/h (0 Bft) N 0 0 min 0 UV-I 0 W/m 0,0 km/h (0 Bft)
18.11.2010 20:10 6,0 C 87 % 1010,9 hPa 0,0 mm 0,0 km/h (0 Bft) N 0 0 min 0 UV-I 0 W/m 0,0 km/h (0 Bft)
18.11.2010 20:20 5,9 C 86 % 1010,9 hPa 0,0 mm 0,0 km/h (0 Bft) N 0 0 min 0 UV-I 0 W/m 0,0 km/h (0 Bft)
18.11.2010 20:30 5,9 C 87 % 1011,0 hPa 0,0 mm 0,0 km/h (0 Bft) N 0 0 min 0 UV-I 0 W/m 0,0 km/h (0 Bft)
18.11.2010 20:41 5,9 C 87 % 1011,0 hPa 0,0 mm 0,0 km/h (0 Bft) O-SO 112 0 min 0 UV-I 0 W/m 1,6 km/h (1 Bft)
18.11.2010 20:50 5,8 C 87 % 1011,1 hPa 0,0 mm 0,0 km/h (0 Bft) N 0 0 min 0 UV-I 0 W/m 0,0 km/h (0 Bft)
18.11.2010 21:00 5,8 C 87 % 1011,1 hPa 0,0 mm 0,0 km/h (0 Bft) O-SO 112 0 min 0 UV-I 0 W/m 1,6 km/h (1 Bft)
18.11.2010 21:10 5,8 C 87 % 1011,2 hPa 0,0 mm 0,0 km/h (0 Bft) O-SO 112 0 min 0 UV-I 0 W/m 1,6 km/h (1 Bft)
18.11.2010 21:20 5,8 C 87 % 1011,2 hPa 0,0 mm 0,0 km/h (0 Bft) N 0 0 min 0 UV-I 0 W/m 0,0 km/h (0 Bft)
18.11.2010 21:30 5,7 C 87 % 1011,2 hPa 0,0 mm 0,0 km/h (0 Bft) O-SO 112 0 min 0 UV-I 0 W/m 1,6 km/h (1 Bft)
18.11.2010 21:40 5,7 C 87 % 1011,3 hPa 0,0 mm 0,0 km/h (0 Bft) N 0 0 min 0 UV-I 0 W/m 0,0 km/h (0 Bft)
18.11.2010 21:50 5,7 C 88 % 1011,2 hPa 0,0 mm 0,0 km/h (0 Bft) N 0 0 min 0 UV-I 0 W/m 0,0 km/h (0 Bft)
18.11.2010 22:00 5,6 C 88 % 1011,2 hPa 0,0 mm 0,0 km/h (0 Bft) N 0 0 min 0 UV-I 0 W/m 0,0 km/h (0 Bft)
18.11.2010 22:10 5,6 C 88 % 1011,3 hPa 0,0 mm 0,0 km/h (0 Bft) N 0 0 min 0 UV-I 0 W/m 0,0 km/h (0 Bft)
18.11.2010 22:20 5,6 C 88 % 1011,4 hPa 0,0 mm 0,0 km/h (0 Bft) N 0 0 min 0 UV-I 0 W/m 0,0 km/h (0 Bft)
18.11.2010 22:30 5,6 C 88 % 1011,4 hPa 0,0 mm 0,0 km/h (0 Bft) N 0 0 min 0 UV-I 0 W/m 0,0 km/h (0 Bft)
18.11.2010 22:40 5,5 C 88 % 1011,4 hPa 0,0 mm 0,0 km/h (0 Bft) O-SO 110 0 min 0 UV-I 0 W/m 0,0 km/h (0 Bft)
18.11.2010 22:50 5,5 C 88 % 1011,5 hPa 0,0 mm 0,0 km/h (0 Bft) N 0 0 min 0 UV-I 0 W/m 0,0 km/h (0 Bft)
18.11.2010 23:00 5,4 C 88 % 1011,5 hPa 0,0 mm 0,0 km/h (0 Bft) N 0 0 min 0 UV-I 0 W/m 0,0 km/h (0 Bft)
18.11.2010 23:10 5,4 C 88 % 1011,6 hPa 0,0 mm 0,0 km/h (0 Bft) N 0 0 min 0 UV-I 0 W/m 0,0 km/h (0 Bft)
18.11.2010 23:20 5,4 C 88 % 1011,6 hPa 0,0 mm 0,0 km/h (0 Bft) N 0 0 min 0 UV-I 0 W/m 0,0 km/h (0 Bft)
18.11.2010 23:30 5,3 C 88 % 1011,6 hPa 0,0 mm 0,0 km/h (0 Bft) N 0 0 min 0 UV-I 0 W/m 0,0 km/h (0 Bft)
18.11.2010 23:40 5,3 C 88 % 1011,7 hPa 0,0 mm 0,0 km/h (0 Bft) N 0 0 min 0 UV-I 0 W/m 0,0 km/h (0 Bft)
18.11.2010 23:50 5,3 C 88 % 1011,8 hPa 0,0 mm 0,0 km/h (0 Bft) N 0 0 min 0 UV-I 0 W/m 0,0 km/h (0 Bft)
_ Min-Zeit 00:00 13:50 06:10 - 00:30 - - - - - 14:00
Minimum _ 4,6 C 81 % 1007,7 hPa - 0,0 km/h (0 Bft) - - - - - 0,0 km/h (0 Bft)
_ Max-Zeit 13:00 04:00 23:50 00:00 00:50 - - 00:00 11:40 10:50 02:30
Maximum _ 7,6 C 89 % 1011,8 hPa 0,0 mm 3,2 km/h
O (1 Bft)
- - 0 min 1 UV-I 162 W/m 9,7 km/h
O-SO (2 Bft)
Durchschnitt _ 5,8 C 86 % 1009,1 hPa #0,0 mm 0,6 km/h (0 Bft) O - #0 min. 1 UV-I 53 W/m 3,3 km/h (1 Bft)